Winslow, Arizona
Current Conditions -  °F | °C
As of 9:56 PM on Saturday 22 Nov 2014 (Local Time) from KINW Reporting Station
Clear Clear  
Wind Chill: 44°   Ceiling: Unl
Heat Index: 48°   Visibility: 10mi
Dew Point: 21°   Wind: 8mph
Humidity: 34%   Direction: 220°SW
Pressure: 29.93"   Gusts: NA
Location:  35.02°N, 110.69°W
Report Text: KINW 230456Z AUTO 22007KT 10SM CLR 09/M06 A2993 RMK AO2 SLP120 T00891061
Loading
Personal Weather Stations






























Interactive Weather Map New forecast layout! Learn more

10-Day Weather Forecast

Advertisements
Track Severe Weather on mobile